sensor_id;sensor_type;location;lat;lon;timestamp;P1;durP1;ratioP1;P2;durP2;ratioP2
75289;SDS011;63883;48.996;20.804;2024-01-30T00:01:36;25.80;;;10.73;;
75289;SDS011;63883;48.996;20.804;2024-01-30T00:04:02;22.13;;;9.20;;
75289;SDS011;63883;48.996;20.804;2024-01-30T00:06:28;22.65;;;9.45;;
75289;SDS011;63883;48.996;20.804;2024-01-30T00:08:54;24.85;;;9.60;;
75289;SDS011;63883;48.996;20.804;2024-01-30T00:11:19;24.05;;;9.45;;
75289;SDS011;63883;48.996;20.804;2024-01-30T00:13:45;23.77;;;9.68;;
75289;SDS011;63883;48.996;20.804;2024-01-30T00:16:23;24.05;;;9.40;;
75289;SDS011;63883;48.996;20.804;2024-01-30T00:18:50;21.67;;;9.52;;
75289;SDS011;63883;48.996;20.804;2024-01-30T00:21:16;19.90;;;8.63;;
75289;SDS011;63883;48.996;20.804;2024-01-30T00:23:42;20.10;;;8.32;;
75289;SDS011;63883;48.996;20.804;2024-01-30T00:26:08;19.63;;;9.02;;
75289;SDS011;63883;48.996;20.804;2024-01-30T00:28:34;22.38;;;9.48;;
75289;SDS011;63883;48.996;20.804;2024-01-30T00:31:00;20.40;;;8.70;;
75289;SDS011;63883;48.996;20.804;2024-01-30T00:33:25;21.60;;;9.02;;
75289;SDS011;63883;48.996;20.804;2024-01-30T00:35:51;22.73;;;7.97;;
75289;SDS011;63883;48.996;20.804;2024-01-30T00:38:17;20.13;;;8.50;;
75289;SDS011;63883;48.996;20.804;2024-01-30T00:40:42;21.58;;;9.30;;
75289;SDS011;63883;48.996;20.804;2024-01-30T00:43:08;18.67;;;8.18;;
75289;SDS011;63883;48.996;20.804;2024-01-30T00:45:34;18.75;;;8.35;;
75289;SDS011;63883;48.996;20.804;2024-01-30T00:48:00;18.38;;;8.50;;
75289;SDS011;63883;48.996;20.804;2024-01-30T00:50:25;20.92;;;7.93;;
75289;SDS011;63883;48.996;20.804;2024-01-30T00:52:51;19.77;;;8.40;;
75289;SDS011;63883;48.996;20.804;2024-01-30T00:55:17;18.50;;;8.32;;
75289;SDS011;63883;48.996;20.804;2024-01-30T00:57:42;17.77;;;8.25;;
75289;SDS011;63883;48.996;20.804;2024-01-30T01:00:08;19.00;;;8.38;;
75289;SDS011;63883;48.996;20.804;2024-01-30T01:02:35;18.10;;;6.95;;
75289;SDS011;63883;48.996;20.804;2024-01-30T01:05:01;19.33;;;8.02;;
75289;SDS011;63883;48.996;20.804;2024-01-30T01:07:27;19.60;;;7.15;;
75289;SDS011;63883;48.996;20.804;2024-01-30T01:09:53;18.95;;;7.60;;
75289;SDS011;63883;48.996;20.804;2024-01-30T01:12:18;16.95;;;7.88;;
75289;SDS011;63883;48.996;20.804;2024-01-30T01:14:44;18.65;;;7.95;;
75289;SDS011;63883;48.996;20.804;2024-01-30T01:17:11;14.98;;;6.78;;
75289;SDS011;63883;48.996;20.804;2024-01-30T01:19:37;18.23;;;7.30;;
75289;SDS011;63883;48.996;20.804;2024-01-30T01:22:03;14.35;;;6.70;;
75289;SDS011;63883;48.996;20.804;2024-01-30T01:24:30;14.07;;;6.25;;
75289;SDS011;63883;48.996;20.804;2024-01-30T01:26:58;15.70;;;7.30;;
75289;SDS011;63883;48.996;20.804;2024-01-30T01:29:24;15.20;;;7.40;;
75289;SDS011;63883;48.996;20.804;2024-01-30T01:31:57;15.75;;;6.65;;
75289;SDS011;63883;48.996;20.804;2024-01-30T01:34:23;15.70;;;7.10;;
75289;SDS011;63883;48.996;20.804;2024-01-30T01:36:50;17.95;;;8.02;;
75289;SDS011;63883;48.996;20.804;2024-01-30T01:39:16;14.73;;;7.30;;
75289;SDS011;63883;48.996;20.804;2024-01-30T01:41:42;18.13;;;7.28;;
75289;SDS011;63883;48.996;20.804;2024-01-30T01:44:08;18.10;;;7.38;;
75289;SDS011;63883;48.996;20.804;2024-01-30T01:46:34;17.10;;;7.22;;
75289;SDS011;63883;48.996;20.804;2024-01-30T01:49:00;17.27;;;8.02;;
75289;SDS011;63883;48.996;20.804;2024-01-30T01:51:28;19.20;;;8.55;;
75289;SDS011;63883;48.996;20.804;2024-01-30T01:53:56;22.00;;;8.35;;
75289;SDS011;63883;48.996;20.804;2024-01-30T01:56:24;24.45;;;9.27;;
75289;SDS011;63883;48.996;20.804;2024-01-30T01:58:49;33.35;;;11.80;;
75289;SDS011;63883;48.996;20.804;2024-01-30T02:01:18;57.53;;;13.50;;
75289;SDS011;63883;48.996;20.804;2024-01-30T02:03:45;46.42;;;12.38;;
75289;SDS011;63883;48.996;20.804;2024-01-30T02:06:12;44.80;;;12.52;;
75289;SDS011;63883;48.996;20.804;2024-01-30T02:08:39;32.28;;;14.23;;
75289;SDS011;63883;48.996;20.804;2024-01-30T02:11:05;58.58;;;14.85;;
75289;SDS011;63883;48.996;20.804;2024-01-30T02:13:31;43.88;;;14.70;;
75289;SDS011;63883;48.996;20.804;2024-01-30T02:15:57;44.33;;;13.70;;
75289;SDS011;63883;48.996;20.804;2024-01-30T02:18:22;44.35;;;15.73;;
75289;SDS011;63883;48.996;20.804;2024-01-30T02:20:48;46.15;;;15.57;;
75289;SDS011;63883;48.996;20.804;2024-01-30T02:23:15;83.07;;;17.23;;
75289;SDS011;63883;48.996;20.804;2024-01-30T02:25:42;106.95;;;18.80;;
75289;SDS011;63883;48.996;20.804;2024-01-30T02:28:12;70.25;;;17.80;;
75289;SDS011;63883;48.996;20.804;2024-01-30T02:30:39;54.88;;;16.58;;
75289;SDS011;63883;48.996;20.804;2024-01-30T02:33:05;63.30;;;19.33;;
75289;SDS011;63883;48.996;20.804;2024-01-30T02:35:31;64.55;;;17.98;;
75289;SDS011;63883;48.996;20.804;2024-01-30T02:37:57;41.17;;;14.82;;
75289;SDS011;63883;48.996;20.804;2024-01-30T02:40:23;62.28;;;16.45;;
75289;SDS011;63883;48.996;20.804;2024-01-30T02:42:48;45.97;;;16.13;;
75289;SDS011;63883;48.996;20.804;2024-01-30T02:45:14;45.15;;;16.10;;
75289;SDS011;63883;48.996;20.804;2024-01-30T02:47:40;69.28;;;16.25;;
75289;SDS011;63883;48.996;20.804;2024-01-30T02:50:06;54.38;;;16.10;;
75289;SDS011;63883;48.996;20.804;2024-01-30T02:52:32;79.90;;;17.00;;
75289;SDS011;63883;48.996;20.804;2024-01-30T02:54:58;56.40;;;17.73;;
75289;SDS011;63883;48.996;20.804;2024-01-30T02:57:23;50.03;;;16.45;;
75289;SDS011;63883;48.996;20.804;2024-01-30T02:59:49;56.42;;;16.90;;
75289;SDS011;63883;48.996;20.804;2024-01-30T03:02:15;53.60;;;18.23;;
75289;SDS011;63883;48.996;20.804;2024-01-30T03:04:41;44.40;;;16.38;;
75289;SDS011;63883;48.996;20.804;2024-01-30T03:07:07;39.08;;;16.08;;
75289;SDS011;63883;48.996;20.804;2024-01-30T03:09:33;47.05;;;16.35;;
75289;SDS011;63883;48.996;20.804;2024-01-30T03:11:59;36.60;;;15.15;;
75289;SDS011;63883;48.996;20.804;2024-01-30T03:14:26;48.78;;;16.48;;
75289;SDS011;63883;48.996;20.804;2024-01-30T03:16:52;42.33;;;15.65;;
75289;SDS011;63883;48.996;20.804;2024-01-30T03:19:17;45.70;;;15.98;;
75289;SDS011;63883;48.996;20.804;2024-01-30T03:21:43;48.65;;;16.25;;
75289;SDS011;63883;48.996;20.804;2024-01-30T03:24:09;39.67;;;16.17;;
75289;SDS011;63883;48.996;20.804;2024-01-30T03:26:35;46.90;;;16.33;;
75289;SDS011;63883;48.996;20.804;2024-01-30T03:29:01;51.55;;;18.35;;
75289;SDS011;63883;48.996;20.804;2024-01-30T03:31:27;80.57;;;18.40;;
75289;SDS011;63883;48.996;20.804;2024-01-30T03:33:52;42.97;;;15.90;;
75289;SDS011;63883;48.996;20.804;2024-01-30T03:36:18;55.15;;;15.98;;
75289;SDS011;63883;48.996;20.804;2024-01-30T03:38:45;69.18;;;17.00;;
75289;SDS011;63883;48.996;20.804;2024-01-30T03:41:10;43.63;;;15.10;;
75289;SDS011;63883;48.996;20.804;2024-01-30T03:43:36;56.35;;;15.95;;
75289;SDS011;63883;48.996;20.804;2024-01-30T03:46:02;49.55;;;13.63;;
75289;SDS011;63883;48.996;20.804;2024-01-30T03:48:29;38.90;;;14.57;;
75289;SDS011;63883;48.996;20.804;2024-01-30T03:50:55;40.17;;;14.10;;
75289;SDS011;63883;48.996;20.804;2024-01-30T03:53:21;37.65;;;13.93;;
75289;SDS011;63883;48.996;20.804;2024-01-30T03:55:47;48.35;;;15.02;;
75289;SDS011;63883;48.996;20.804;2024-01-30T03:58:13;61.25;;;15.13;;
75289;SDS011;63883;48.996;20.804;2024-01-30T04:00:38;80.57;;;15.05;;
75289;SDS011;63883;48.996;20.804;2024-01-30T04:03:04;53.80;;;14.57;;
75289;SDS011;63883;48.996;20.804;2024-01-30T04:05:30;41.90;;;13.70;;
75289;SDS011;63883;48.996;20.804;2024-01-30T04:07:56;26.50;;;10.48;;
75289;SDS011;63883;48.996;20.804;2024-01-30T04:10:21;34.35;;;11.07;;
75289;SDS011;63883;48.996;20.804;2024-01-30T04:12:47;30.65;;;11.45;;
75289;SDS011;63883;48.996;20.804;2024-01-30T04:15:13;71.47;;;12.85;;
75289;SDS011;63883;48.996;20.804;2024-01-30T04:17:39;53.00;;;13.27;;
75289;SDS011;63883;48.996;20.804;2024-01-30T04:20:05;46.15;;;11.73;;
75289;SDS011;63883;48.996;20.804;2024-01-30T04:22:31;51.22;;;11.43;;
75289;SDS011;63883;48.996;20.804;2024-01-30T04:24:57;26.20;;;11.43;;
75289;SDS011;63883;48.996;20.804;2024-01-30T04:27:23;39.00;;;12.07;;
75289;SDS011;63883;48.996;20.804;2024-01-30T04:29:48;31.25;;;10.45;;
75289;SDS011;63883;48.996;20.804;2024-01-30T04:32:14;32.17;;;11.82;;
75289;SDS011;63883;48.996;20.804;2024-01-30T04:34:40;37.85;;;11.77;;
75289;SDS011;63883;48.996;20.804;2024-01-30T04:37:06;30.05;;;11.25;;
75289;SDS011;63883;48.996;20.804;2024-01-30T04:39:34;43.75;;;12.30;;
75289;SDS011;63883;48.996;20.804;2024-01-30T04:42:00;39.22;;;12.20;;
75289;SDS011;63883;48.996;20.804;2024-01-30T04:44:26;31.75;;;10.73;;
75289;SDS011;63883;48.996;20.804;2024-01-30T04:46:51;36.83;;;12.07;;
75289;SDS011;63883;48.996;20.804;2024-01-30T04:49:17;28.35;;;11.18;;
75289;SDS011;63883;48.996;20.804;2024-01-30T04:51:43;36.90;;;11.93;;
75289;SDS011;63883;48.996;20.804;2024-01-30T04:54:08;49.67;;;10.95;;
75289;SDS011;63883;48.996;20.804;2024-01-30T04:56:34;38.45;;;11.43;;
75289;SDS011;63883;48.996;20.804;2024-01-30T04:59:01;44.35;;;11.45;;
75289;SDS011;63883;48.996;20.804;2024-01-30T05:01:28;43.00;;;12.90;;
75289;SDS011;63883;48.996;20.804;2024-01-30T05:03:53;31.92;;;11.05;;
75289;SDS011;63883;48.996;20.804;2024-01-30T05:06:25;59.38;;;11.48;;
75289;SDS011;63883;48.996;20.804;2024-01-30T05:08:52;44.47;;;11.65;;
75289;SDS011;63883;48.996;20.804;2024-01-30T05:11:17;51.08;;;12.50;;
75289;SDS011;63883;48.996;20.804;2024-01-30T05:13:43;54.40;;;11.82;;
75289;SDS011;63883;48.996;20.804;2024-01-30T05:16:09;42.72;;;10.93;;
75289;SDS011;63883;48.996;20.804;2024-01-30T05:18:34;47.15;;;11.35;;
75289;SDS011;63883;48.996;20.804;2024-01-30T05:21:01;30.60;;;10.88;;
75289;SDS011;63883;48.996;20.804;2024-01-30T05:23:27;42.42;;;11.85;;
75289;SDS011;63883;48.996;20.804;2024-01-30T05:25:53;40.42;;;11.82;;
75289;SDS011;63883;48.996;20.804;2024-01-30T05:28:18;33.90;;;11.10;;
75289;SDS011;63883;48.996;20.804;2024-01-30T05:30:44;43.78;;;10.35;;
75289;SDS011;63883;48.996;20.804;2024-01-30T05:33:10;22.77;;;10.63;;
75289;SDS011;63883;48.996;20.804;2024-01-30T05:35:37;25.95;;;10.70;;
75289;SDS011;63883;48.996;20.804;2024-01-30T05:38:03;36.50;;;12.15;;
75289;SDS011;63883;48.996;20.804;2024-01-30T05:40:30;41.30;;;13.35;;
75289;SDS011;63883;48.996;20.804;2024-01-30T05:42:56;35.70;;;12.27;;
75289;SDS011;63883;48.996;20.804;2024-01-30T05:45:23;24.55;;;11.18;;
75289;SDS011;63883;48.996;20.804;2024-01-30T05:47:49;42.80;;;12.55;;
75289;SDS011;63883;48.996;20.804;2024-01-30T05:50:15;27.55;;;11.50;;
75289;SDS011;63883;48.996;20.804;2024-01-30T05:52:40;33.92;;;11.55;;
75289;SDS011;63883;48.996;20.804;2024-01-30T05:55:06;43.53;;;11.43;;
75289;SDS011;63883;48.996;20.804;2024-01-30T05:57:32;39.60;;;11.73;;
75289;SDS011;63883;48.996;20.804;2024-01-30T05:59:58;45.53;;;10.85;;
75289;SDS011;63883;48.996;20.804;2024-01-30T06:02:23;51.83;;;11.00;;
75289;SDS011;63883;48.996;20.804;2024-01-30T06:04:49;27.05;;;10.77;;
75289;SDS011;63883;48.996;20.804;2024-01-30T06:07:15;33.28;;;10.98;;
75289;SDS011;63883;48.996;20.804;2024-01-30T06:09:41;35.17;;;12.15;;
75289;SDS011;63883;48.996;20.804;2024-01-30T06:12:06;62.55;;;19.17;;
75289;SDS011;63883;48.996;20.804;2024-01-30T06:14:32;42.15;;;16.13;;
75289;SDS011;63883;48.996;20.804;2024-01-30T06:16:58;59.42;;;17.85;;
75289;SDS011;63883;48.996;20.804;2024-01-30T06:19:24;30.98;;;13.52;;
75289;SDS011;63883;48.996;20.804;2024-01-30T06:21:50;36.78;;;12.15;;
75289;SDS011;63883;48.996;20.804;2024-01-30T06:24:16;36.78;;;10.80;;
75289;SDS011;63883;48.996;20.804;2024-01-30T06:26:42;33.78;;;10.35;;
75289;SDS011;63883;48.996;20.804;2024-01-30T06:29:08;28.08;;;10.30;;
75289;SDS011;63883;48.996;20.804;2024-01-30T06:31:39;27.17;;;10.55;;
75289;SDS011;63883;48.996;20.804;2024-01-30T06:34:05;31.30;;;9.95;;
75289;SDS011;63883;48.996;20.804;2024-01-30T06:36:31;30.48;;;9.73;;
75289;SDS011;63883;48.996;20.804;2024-01-30T06:38:56;21.77;;;9.13;;
75289;SDS011;63883;48.996;20.804;2024-01-30T06:41:22;21.90;;;9.05;;
75289;SDS011;63883;48.996;20.804;2024-01-30T06:43:48;26.35;;;9.23;;
75289;SDS011;63883;48.996;20.804;2024-01-30T06:46:13;21.38;;;8.38;;
75289;SDS011;63883;48.996;20.804;2024-01-30T06:48:39;21.67;;;9.15;;
75289;SDS011;63883;48.996;20.804;2024-01-30T06:51:05;28.75;;;11.88;;
75289;SDS011;63883;48.996;20.804;2024-01-30T06:53:31;35.60;;;14.52;;
75289;SDS011;63883;48.996;20.804;2024-01-30T06:55:57;41.65;;;17.88;;
75289;SDS011;63883;48.996;20.804;2024-01-30T06:58:23;29.08;;;10.90;;
75289;SDS011;63883;48.996;20.804;2024-01-30T07:00:48;18.48;;;9.20;;
75289;SDS011;63883;48.996;20.804;2024-01-30T07:03:14;25.10;;;12.95;;
75289;SDS011;63883;48.996;20.804;2024-01-30T07:05:40;22.05;;;9.98;;
75289;SDS011;63883;48.996;20.804;2024-01-30T07:08:06;34.72;;;13.30;;
75289;SDS011;63883;48.996;20.804;2024-01-30T07:10:32;49.88;;;19.13;;
75289;SDS011;63883;48.996;20.804;2024-01-30T07:12:59;40.47;;;15.13;;
75289;SDS011;63883;48.996;20.804;2024-01-30T07:15:26;36.97;;;14.65;;
75289;SDS011;63883;48.996;20.804;2024-01-30T07:17:51;25.58;;;10.90;;
75289;SDS011;63883;48.996;20.804;2024-01-30T07:20:17;26.40;;;9.70;;
75289;SDS011;63883;48.996;20.804;2024-01-30T07:22:46;27.05;;;8.88;;
75289;SDS011;63883;48.996;20.804;2024-01-30T07:25:13;22.48;;;9.60;;
75289;SDS011;63883;48.996;20.804;2024-01-30T07:27:39;52.17;;;14.18;;
75289;SDS011;63883;48.996;20.804;2024-01-30T07:30:04;27.15;;;9.68;;
75289;SDS011;63883;48.996;20.804;2024-01-30T07:32:31;48.28;;;15.02;;
75289;SDS011;63883;48.996;20.804;2024-01-30T07:34:57;25.30;;;8.93;;
75289;SDS011;63883;48.996;20.804;2024-01-30T07:37:23;22.63;;;9.48;;
75289;SDS011;63883;48.996;20.804;2024-01-30T07:39:48;28.88;;;11.07;;
75289;SDS011;63883;48.996;20.804;2024-01-30T07:42:14;28.60;;;9.10;;
75289;SDS011;63883;48.996;20.804;2024-01-30T07:44:39;42.33;;;11.18;;
75289;SDS011;63883;48.996;20.804;2024-01-30T07:47:05;24.48;;;9.50;;
75289;SDS011;63883;48.996;20.804;2024-01-30T07:49:31;36.50;;;12.80;;
75289;SDS011;63883;48.996;20.804;2024-01-30T07:51:57;38.35;;;12.50;;
75289;SDS011;63883;48.996;20.804;2024-01-30T07:54:22;36.65;;;12.35;;
75289;SDS011;63883;48.996;20.804;2024-01-30T07:56:48;36.28;;;12.98;;
75289;SDS011;63883;48.996;20.804;2024-01-30T07:59:14;33.45;;;10.73;;
75289;SDS011;63883;48.996;20.804;2024-01-30T08:01:40;24.73;;;9.38;;
75289;SDS011;63883;48.996;20.804;2024-01-30T08:04:05;31.90;;;9.75;;
75289;SDS011;63883;48.996;20.804;2024-01-30T08:06:31;33.05;;;12.27;;
75289;SDS011;63883;48.996;20.804;2024-01-30T08:08:57;29.00;;;12.32;;
75289;SDS011;63883;48.996;20.804;2024-01-30T08:11:24;24.75;;;10.63;;
75289;SDS011;63883;48.996;20.804;2024-01-30T08:13:54;30.75;;;12.30;;
75289;SDS011;63883;48.996;20.804;2024-01-30T08:16:20;30.83;;;10.50;;
75289;SDS011;63883;48.996;20.804;2024-01-30T08:18:46;21.58;;;9.98;;
75289;SDS011;63883;48.996;20.804;2024-01-30T08:21:12;25.98;;;10.32;;
75289;SDS011;63883;48.996;20.804;2024-01-30T08:23:38;24.02;;;10.40;;
75289;SDS011;63883;48.996;20.804;2024-01-30T08:26:05;22.92;;;9.75;;
75289;SDS011;63883;48.996;20.804;2024-01-30T08:28:31;27.92;;;10.13;;
75289;SDS011;63883;48.996;20.804;2024-01-30T08:30:56;27.42;;;10.40;;
75289;SDS011;63883;48.996;20.804;2024-01-30T08:33:22;23.85;;;10.07;;
75289;SDS011;63883;48.996;20.804;2024-01-30T08:35:48;22.77;;;9.60;;
75289;SDS011;63883;48.996;20.804;2024-01-30T08:38:14;21.08;;;9.77;;
75289;SDS011;63883;48.996;20.804;2024-01-30T08:40:40;19.73;;;9.20;;
75289;SDS011;63883;48.996;20.804;2024-01-30T08:43:05;18.50;;;9.57;;
75289;SDS011;63883;48.996;20.804;2024-01-30T08:45:31;20.95;;;9.48;;
75289;SDS011;63883;48.996;20.804;2024-01-30T08:47:56;23.42;;;11.07;;
75289;SDS011;63883;48.996;20.804;2024-01-30T08:50:22;20.88;;;10.45;;
75289;SDS011;63883;48.996;20.804;2024-01-30T08:52:48;20.92;;;10.95;;
75289;SDS011;63883;48.996;20.804;2024-01-30T08:55:14;26.02;;;11.05;;
75289;SDS011;63883;48.996;20.804;2024-01-30T08:57:39;26.27;;;10.57;;
75289;SDS011;63883;48.996;20.804;2024-01-30T09:00:05;21.58;;;11.18;;
75289;SDS011;63883;48.996;20.804;2024-01-30T09:02:34;25.38;;;11.95;;
75289;SDS011;63883;48.996;20.804;2024-01-30T09:05:00;27.77;;;12.18;;
75289;SDS011;63883;48.996;20.804;2024-01-30T09:07:26;23.23;;;11.13;;
75289;SDS011;63883;48.996;20.804;2024-01-30T09:09:52;23.08;;;11.80;;
75289;SDS011;63883;48.996;20.804;2024-01-30T09:12:17;24.25;;;11.40;;
75289;SDS011;63883;48.996;20.804;2024-01-30T09:14:43;26.65;;;10.82;;
75289;SDS011;63883;48.996;20.804;2024-01-30T09:17:09;23.38;;;11.25;;
75289;SDS011;63883;48.996;20.804;2024-01-30T09:19:34;25.80;;;9.70;;
75289;SDS011;63883;48.996;20.804;2024-01-30T09:22:00;23.88;;;9.93;;
75289;SDS011;63883;48.996;20.804;2024-01-30T09:24:26;27.33;;;9.80;;
75289;SDS011;63883;48.996;20.804;2024-01-30T09:26:53;24.17;;;10.02;;
75289;SDS011;63883;48.996;20.804;2024-01-30T09:29:19;26.95;;;10.23;;
75289;SDS011;63883;48.996;20.804;2024-01-30T09:31:45;21.98;;;11.00;;
75289;SDS011;63883;48.996;20.804;2024-01-30T09:34:11;23.45;;;10.02;;
75289;SDS011;63883;48.996;20.804;2024-01-30T09:36:37;19.95;;;9.55;;
75289;SDS011;63883;48.996;20.804;2024-01-30T09:39:03;26.15;;;10.10;;
75289;SDS011;63883;48.996;20.804;2024-01-30T09:41:29;18.80;;;9.52;;
75289;SDS011;63883;48.996;20.804;2024-01-30T09:43:58;22.52;;;9.73;;
75289;SDS011;63883;48.996;20.804;2024-01-30T09:46:26;22.55;;;9.32;;
75289;SDS011;63883;48.996;20.804;2024-01-30T09:48:53;23.88;;;9.93;;
75289;SDS011;63883;48.996;20.804;2024-01-30T09:51:21;24.10;;;10.23;;
75289;SDS011;63883;48.996;20.804;2024-01-30T09:53:47;22.63;;;10.07;;
75289;SDS011;63883;48.996;20.804;2024-01-30T09:56:13;27.08;;;10.70;;
75289;SDS011;63883;48.996;20.804;2024-01-30T09:58:39;26.10;;;12.13;;
75289;SDS011;63883;48.996;20.804;2024-01-30T10:01:05;25.75;;;11.27;;
75289;SDS011;63883;48.996;20.804;2024-01-30T10:03:31;40.05;;;10.93;;
75289;SDS011;63883;48.996;20.804;2024-01-30T10:05:57;28.23;;;10.27;;
75289;SDS011;63883;48.996;20.804;2024-01-30T10:08:23;22.70;;;10.82;;
75289;SDS011;63883;48.996;20.804;2024-01-30T10:10:49;24.10;;;10.93;;
75289;SDS011;63883;48.996;20.804;2024-01-30T10:13:15;25.73;;;11.00;;
75289;SDS011;63883;48.996;20.804;2024-01-30T10:15:41;25.00;;;12.20;;
75289;SDS011;63883;48.996;20.804;2024-01-30T10:18:10;24.00;;;10.70;;
75289;SDS011;63883;48.996;20.804;2024-01-30T10:20:36;24.38;;;10.55;;
75289;SDS011;63883;48.996;20.804;2024-01-30T10:23:02;24.08;;;10.48;;
75289;SDS011;63883;48.996;20.804;2024-01-30T10:25:30;29.08;;;12.30;;
75289;SDS011;63883;48.996;20.804;2024-01-30T10:27:57;26.33;;;11.77;;
75289;SDS011;63883;48.996;20.804;2024-01-30T10:30:24;26.33;;;11.90;;
75289;SDS011;63883;48.996;20.804;2024-01-30T10:32:50;23.23;;;11.10;;
75289;SDS011;63883;48.996;20.804;2024-01-30T10:35:16;25.05;;;12.20;;
75289;SDS011;63883;48.996;20.804;2024-01-30T10:37:47;29.27;;;12.48;;
75289;SDS011;63883;48.996;20.804;2024-01-30T10:40:14;26.52;;;11.20;;
75289;SDS011;63883;48.996;20.804;2024-01-30T10:42:44;26.77;;;11.50;;
75289;SDS011;63883;48.996;20.804;2024-01-30T10:45:12;25.40;;;12.50;;
75289;SDS011;63883;48.996;20.804;2024-01-30T10:47:53;29.30;;;13.63;;
75289;SDS011;63883;48.996;20.804;2024-01-30T10:50:22;26.45;;;12.57;;
75289;SDS011;63883;48.996;20.804;2024-01-30T10:52:49;27.90;;;12.55;;
75289;SDS011;63883;48.996;20.804;2024-01-30T10:55:16;31.52;;;13.48;;
75289;SDS011;63883;48.996;20.804;2024-01-30T10:57:43;28.20;;;13.65;;
75289;SDS011;63883;48.996;20.804;2024-01-30T11:00:12;28.95;;;12.48;;
75289;SDS011;63883;48.996;20.804;2024-01-30T11:02:44;25.98;;;12.70;;
75289;SDS011;63883;48.996;20.804;2024-01-30T11:05:11;25.25;;;12.63;;
75289;SDS011;63883;48.996;20.804;2024-01-30T11:07:38;27.33;;;13.10;;
75289;SDS011;63883;48.996;20.804;2024-01-30T11:10:08;24.88;;;12.70;;
75289;SDS011;63883;48.996;20.804;2024-01-30T11:12:40;26.92;;;13.98;;
75289;SDS011;63883;48.996;20.804;2024-01-30T11:15:08;27.08;;;13.23;;
75289;SDS011;63883;48.996;20.804;2024-01-30T11:17:44;25.83;;;12.70;;
75289;SDS011;63883;48.996;20.804;2024-01-30T11:22:52;24.35;;;13.65;;
75289;SDS011;63883;48.996;20.804;2024-01-30T11:25:21;26.70;;;12.98;;
75289;SDS011;63883;48.996;20.804;2024-01-30T11:27:54;26.77;;;12.82;;
75289;SDS011;63883;48.996;20.804;2024-01-30T11:33:07;24.85;;;12.75;;
75289;SDS011;63883;48.996;20.804;2024-01-30T11:35:37;27.00;;;13.27;;
75289;SDS011;63883;48.996;20.804;2024-01-30T11:38:04;27.88;;;14.45;;
75289;SDS011;63883;48.996;20.804;2024-01-30T11:40:31;28.65;;;14.15;;
75289;SDS011;63883;48.996;20.804;2024-01-30T11:42:59;26.30;;;12.98;;
75289;SDS011;63883;48.996;20.804;2024-01-30T11:45:28;25.10;;;13.88;;
75289;SDS011;63883;48.996;20.804;2024-01-30T11:47:54;28.48;;;15.50;;
75289;SDS011;63883;48.996;20.804;2024-01-30T11:50:21;27.20;;;13.70;;
75289;SDS011;63883;48.996;20.804;2024-01-30T11:52:47;26.50;;;13.55;;
75289;SDS011;63883;48.996;20.804;2024-01-30T11:55:14;27.02;;;13.35;;
75289;SDS011;63883;48.996;20.804;2024-01-30T11:57:40;23.55;;;13.27;;
75289;SDS011;63883;48.996;20.804;2024-01-30T12:00:06;25.00;;;12.32;;
75289;SDS011;63883;48.996;20.804;2024-01-30T12:02:40;21.45;;;11.13;;
75289;SDS011;63883;48.996;20.804;2024-01-30T12:05:05;21.02;;;10.80;;
75289;SDS011;63883;48.996;20.804;2024-01-30T12:07:32;19.45;;;10.70;;
75289;SDS011;63883;48.996;20.804;2024-01-30T12:09:58;17.45;;;10.02;;
75289;SDS011;63883;48.996;20.804;2024-01-30T12:12:28;20.88;;;10.95;;
75289;SDS011;63883;48.996;20.804;2024-01-30T12:14:55;22.77;;;11.63;;
75289;SDS011;63883;48.996;20.804;2024-01-30T12:17:28;35.83;;;16.50;;
75289;SDS011;63883;48.996;20.804;2024-01-30T12:22:44;21.63;;;11.63;;
75289;SDS011;63883;48.996;20.804;2024-01-30T12:25:18;21.30;;;11.93;;
75289;SDS011;63883;48.996;20.804;2024-01-30T12:27:46;22.77;;;12.52;;
75289;SDS011;63883;48.996;20.804;2024-01-30T12:30:15;19.10;;;10.65;;
75289;SDS011;63883;48.996;20.804;2024-01-30T12:32:41;25.02;;;12.30;;
75289;SDS011;63883;48.996;20.804;2024-01-30T12:35:15;22.55;;;12.40;;
75289;SDS011;63883;48.996;20.804;2024-01-30T12:37:45;25.15;;;13.02;;
75289;SDS011;63883;48.996;20.804;2024-01-30T12:40:13;23.23;;;12.10;;
75289;SDS011;63883;48.996;20.804;2024-01-30T12:42:40;25.38;;;13.55;;
75289;SDS011;63883;48.996;20.804;2024-01-30T12:45:14;23.23;;;12.68;;
75289;SDS011;63883;48.996;20.804;2024-01-30T12:47:41;28.75;;;13.90;;
75289;SDS011;63883;48.996;20.804;2024-01-30T12:50:07;25.17;;;12.23;;
75289;SDS011;63883;48.996;20.804;2024-01-30T12:52:34;28.20;;;14.02;;
75289;SDS011;63883;48.996;20.804;2024-01-30T12:55:00;34.33;;;16.75;;
75289;SDS011;63883;48.996;20.804;2024-01-30T12:57:26;32.90;;;17.23;;
75289;SDS011;63883;48.996;20.804;2024-01-30T12:59:51;28.13;;;15.02;;
75289;SDS011;63883;48.996;20.804;2024-01-30T13:02:17;30.27;;;15.27;;
75289;SDS011;63883;48.996;20.804;2024-01-30T13:04:43;28.92;;;15.07;;
75289;SDS011;63883;48.996;20.804;2024-01-30T13:07:09;28.77;;;13.95;;
75289;SDS011;63883;48.996;20.804;2024-01-30T13:09:34;25.95;;;14.27;;
75289;SDS011;63883;48.996;20.804;2024-01-30T13:12:00;30.30;;;16.67;;
75289;SDS011;63883;48.996;20.804;2024-01-30T13:14:26;30.13;;;16.23;;
75289;SDS011;63883;48.996;20.804;2024-01-30T13:16:52;28.42;;;14.57;;
75289;SDS011;63883;48.996;20.804;2024-01-30T13:19:18;29.42;;;15.00;;
75289;SDS011;63883;48.996;20.804;2024-01-30T13:21:44;28.90;;;15.90;;
75289;SDS011;63883;48.996;20.804;2024-01-30T13:24:10;27.35;;;15.30;;
75289;SDS011;63883;48.996;20.804;2024-01-30T13:26:35;28.40;;;14.27;;
75289;SDS011;63883;48.996;20.804;2024-01-30T13:29:01;29.17;;;15.05;;
75289;SDS011;63883;48.996;20.804;2024-01-30T13:31:28;28.05;;;14.80;;
75289;SDS011;63883;48.996;20.804;2024-01-30T13:33:54;24.38;;;14.10;;
75289;SDS011;63883;48.996;20.804;2024-01-30T13:36:20;25.42;;;13.43;;
75289;SDS011;63883;48.996;20.804;2024-01-30T13:38:46;19.33;;;10.60;;
75289;SDS011;63883;48.996;20.804;2024-01-30T13:41:12;16.30;;;9.93;;
75289;SDS011;63883;48.996;20.804;2024-01-30T13:43:38;18.77;;;10.30;;
75289;SDS011;63883;48.996;20.804;2024-01-30T13:46:04;17.67;;;10.18;;
75289;SDS011;63883;48.996;20.804;2024-01-30T13:48:30;23.10;;;13.63;;
75289;SDS011;63883;48.996;20.804;2024-01-30T13:50:57;22.88;;;13.63;;
75289;SDS011;63883;48.996;20.804;2024-01-30T13:53:22;21.27;;;12.48;;
75289;SDS011;63883;48.996;20.804;2024-01-30T13:55:48;22.02;;;12.23;;
75289;SDS011;63883;48.996;20.804;2024-01-30T13:58:14;22.25;;;14.02;;
75289;SDS011;63883;48.996;20.804;2024-01-30T14:00:40;23.48;;;13.38;;
75289;SDS011;63883;48.996;20.804;2024-01-30T14:03:05;24.60;;;14.77;;
75289;SDS011;63883;48.996;20.804;2024-01-30T14:05:32;24.77;;;15.52;;
75289;SDS011;63883;48.996;20.804;2024-01-30T14:07:58;23.63;;;14.73;;
75289;SDS011;63883;48.996;20.804;2024-01-30T14:10:25;23.63;;;14.50;;
75289;SDS011;63883;48.996;20.804;2024-01-30T14:12:50;25.23;;;13.85;;
75289;SDS011;63883;48.996;20.804;2024-01-30T14:15:16;23.48;;;13.35;;